sensor_id;sensor_type;location;lat;lon;timestamp;P1;durP1;ratioP1;P2;durP2;ratioP2
4971;SDS011;2501;51.214;6.768;2023-08-06T00:00:31;5.75;;;4.00;;
4971;SDS011;2501;51.214;6.768;2023-08-06T00:03:00;6.97;;;4.80;;
4971;SDS011;2501;51.214;6.768;2023-08-06T00:05:28;6.45;;;4.40;;
4971;SDS011;2501;51.214;6.768;2023-08-06T00:07:59;6.00;;;4.35;;
4971;SDS011;2501;51.214;6.768;2023-08-06T00:10:28;4.82;;;4.20;;
4971;SDS011;2501;51.214;6.768;2023-08-06T00:12:56;6.97;;;4.20;;
4971;SDS011;2501;51.214;6.768;2023-08-06T00:15:25;5.80;;;4.50;;
4971;SDS011;2501;51.214;6.768;2023-08-06T00:17:53;6.75;;;3.90;;
4971;SDS011;2501;51.214;6.768;2023-08-06T00:20:22;4.50;;;3.97;;
4971;SDS011;2501;51.214;6.768;2023-08-06T00:22:50;5.35;;;4.13;;
4971;SDS011;2501;51.214;6.768;2023-08-06T00:25:21;6.10;;;4.00;;
4971;SDS011;2501;51.214;6.768;2023-08-06T00:27:49;4.93;;;4.30;;
4971;SDS011;2501;51.214;6.768;2023-08-06T00:30:18;7.20;;;4.30;;
4971;SDS011;2501;51.214;6.768;2023-08-06T00:32:46;6.10;;;4.20;;
4971;SDS011;2501;51.214;6.768;2023-08-06T00:35:15;4.90;;;4.40;;
4971;SDS011;2501;51.214;6.768;2023-08-06T00:37:43;8.02;;;3.50;;
4971;SDS011;2501;51.214;6.768;2023-08-06T00:40:12;4.93;;;3.80;;
4971;SDS011;2501;51.214;6.768;2023-08-06T00:42:43;6.00;;;4.00;;
4971;SDS011;2501;51.214;6.768;2023-08-06T00:45:12;6.80;;;4.00;;
4971;SDS011;2501;51.214;6.768;2023-08-06T00:47:41;8.63;;;4.40;;
4971;SDS011;2501;51.214;6.768;2023-08-06T00:50:11;6.35;;;4.00;;
4971;SDS011;2501;51.214;6.768;2023-08-06T00:52:39;3.65;;;3.28;;
4971;SDS011;2501;51.214;6.768;2023-08-06T00:55:08;5.22;;;3.80;;
4971;SDS011;2501;51.214;6.768;2023-08-06T00:57:38;4.25;;;3.85;;
4971;SDS011;2501;51.214;6.768;2023-08-06T01:00:09;4.25;;;3.85;;
4971;SDS011;2501;51.214;6.768;2023-08-06T01:02:39;4.95;;;3.55;;
4971;SDS011;2501;51.214;6.768;2023-08-06T01:05:07;3.78;;;3.45;;
4971;SDS011;2501;51.214;6.768;2023-08-06T01:07:39;4.57;;;3.50;;
4971;SDS011;2501;51.214;6.768;2023-08-06T01:10:22;5.90;;;3.70;;
4971;SDS011;2501;51.214;6.768;2023-08-06T01:12:59;4.05;;;3.50;;
4971;SDS011;2501;51.214;6.768;2023-08-06T01:15:38;4.83;;;3.40;;
4971;SDS011;2501;51.214;6.768;2023-08-06T01:18:11;4.80;;;3.78;;
4971;SDS011;2501;51.214;6.768;2023-08-06T01:20:43;3.90;;;3.30;;
4971;SDS011;2501;51.214;6.768;2023-08-06T01:23:11;5.22;;;3.20;;
4971;SDS011;2501;51.214;6.768;2023-08-06T01:25:41;3.60;;;3.10;;
4971;SDS011;2501;51.214;6.768;2023-08-06T01:28:18;5.45;;;3.60;;
4971;SDS011;2501;51.214;6.768;2023-08-06T01:30:52;4.00;;;3.20;;
4971;SDS011;2501;51.214;6.768;2023-08-06T01:33:23;7.80;;;3.30;;
4971;SDS011;2501;51.214;6.768;2023-08-06T01:35:55;3.60;;;3.30;;
4971;SDS011;2501;51.214;6.768;2023-08-06T01:38:25;3.60;;;3.30;;
4971;SDS011;2501;51.214;6.768;2023-08-06T01:40:54;9.50;;;4.30;;
4971;SDS011;2501;51.214;6.768;2023-08-06T01:43:22;5.88;;;3.85;;
4971;SDS011;2501;51.214;6.768;2023-08-06T01:45:51;5.28;;;3.70;;
4971;SDS011;2501;51.214;6.768;2023-08-06T01:48:19;4.40;;;4.00;;
4971;SDS011;2501;51.214;6.768;2023-08-06T01:50:48;3.42;;;3.13;;
4971;SDS011;2501;51.214;6.768;2023-08-06T01:53:19;3.95;;;3.65;;
4971;SDS011;2501;51.214;6.768;2023-08-06T01:55:47;9.63;;;3.70;;
4971;SDS011;2501;51.214;6.768;2023-08-06T01:58:16;5.30;;;3.58;;
4971;SDS011;2501;51.214;6.768;2023-08-06T02:00:44;7.57;;;3.72;;
4971;SDS011;2501;51.214;6.768;2023-08-06T02:03:13;3.97;;;3.58;;
4971;SDS011;2501;51.214;6.768;2023-08-06T02:05:41;3.92;;;3.40;;
4971;SDS011;2501;51.214;6.768;2023-08-06T02:08:10;6.53;;;4.20;;
4971;SDS011;2501;51.214;6.768;2023-08-06T02:10:41;6.65;;;3.80;;
4971;SDS011;2501;51.214;6.768;2023-08-06T02:13:10;4.43;;;3.53;;
4971;SDS011;2501;51.214;6.768;2023-08-06T02:15:41;3.88;;;3.47;;
4971;SDS011;2501;51.214;6.768;2023-08-06T02:18:12;5.20;;;3.40;;
4971;SDS011;2501;51.214;6.768;2023-08-06T02:20:41;4.60;;;3.20;;
4971;SDS011;2501;51.214;6.768;2023-08-06T02:23:09;5.50;;;3.80;;
4971;SDS011;2501;51.214;6.768;2023-08-06T02:25:37;7.35;;;3.50;;
4971;SDS011;2501;51.214;6.768;2023-08-06T02:28:08;5.22;;;3.60;;
4971;SDS011;2501;51.214;6.768;2023-08-06T02:30:37;6.30;;;3.80;;
4971;SDS011;2501;51.214;6.768;2023-08-06T02:33:05;8.53;;;3.30;;
4971;SDS011;2501;51.214;6.768;2023-08-06T02:35:34;5.63;;;3.85;;
4971;SDS011;2501;51.214;6.768;2023-08-06T02:38:02;5.00;;;3.43;;
4971;SDS011;2501;51.214;6.768;2023-08-06T02:40:30;5.18;;;3.60;;
4971;SDS011;2501;51.214;6.768;2023-08-06T02:42:59;10.20;;;4.00;;
4971;SDS011;2501;51.214;6.768;2023-08-06T02:45:31;5.18;;;4.03;;
4971;SDS011;2501;51.214;6.768;2023-08-06T02:47:59;4.10;;;3.70;;
4971;SDS011;2501;51.214;6.768;2023-08-06T02:50:28;7.03;;;4.00;;
4971;SDS011;2501;51.214;6.768;2023-08-06T02:52:56;7.25;;;4.10;;
4971;SDS011;2501;51.214;6.768;2023-08-06T02:55:24;8.05;;;4.10;;
4971;SDS011;2501;51.214;6.768;2023-08-06T02:57:53;5.30;;;4.28;;
4971;SDS011;2501;51.214;6.768;2023-08-06T03:00:21;4.20;;;3.70;;
4971;SDS011;2501;51.214;6.768;2023-08-06T03:02:52;9.60;;;4.10;;
4971;SDS011;2501;51.214;6.768;2023-08-06T03:05:21;5.53;;;4.03;;
4971;SDS011;2501;51.214;6.768;2023-08-06T03:07:49;5.70;;;4.05;;
4971;SDS011;2501;51.214;6.768;2023-08-06T03:10:17;7.30;;;4.15;;
4971;SDS011;2501;51.214;6.768;2023-08-06T03:12:46;9.60;;;4.22;;
4971;SDS011;2501;51.214;6.768;2023-08-06T03:15:14;4.68;;;4.20;;
4971;SDS011;2501;51.214;6.768;2023-08-06T03:17:43;6.50;;;3.85;;
4971;SDS011;2501;51.214;6.768;2023-08-06T03:20:14;7.75;;;4.30;;
4971;SDS011;2501;51.214;6.768;2023-08-06T03:22:43;5.72;;;4.15;;
4971;SDS011;2501;51.214;6.768;2023-08-06T03:25:11;8.57;;;4.43;;
4971;SDS011;2501;51.214;6.768;2023-08-06T03:27:39;6.95;;;4.20;;
4971;SDS011;2501;51.214;6.768;2023-08-06T03:30:08;4.80;;;3.90;;
4971;SDS011;2501;51.214;6.768;2023-08-06T03:32:37;5.75;;;3.80;;
4971;SDS011;2501;51.214;6.768;2023-08-06T03:35:06;11.73;;;4.10;;
4971;SDS011;2501;51.214;6.768;2023-08-06T03:37:38;5.20;;;3.63;;
4971;SDS011;2501;51.214;6.768;2023-08-06T03:40:07;4.80;;;3.70;;
4971;SDS011;2501;51.214;6.768;2023-08-06T03:42:36;6.20;;;3.70;;
4971;SDS011;2501;51.214;6.768;2023-08-06T03:45:05;3.75;;;3.40;;
4971;SDS011;2501;51.214;6.768;2023-08-06T03:47:35;8.90;;;3.60;;
4971;SDS011;2501;51.214;6.768;2023-08-06T03:50:04;10.03;;;4.00;;
4971;SDS011;2501;51.214;6.768;2023-08-06T03:52:32;3.83;;;3.43;;
4971;SDS011;2501;51.214;6.768;2023-08-06T03:55:04;3.60;;;3.30;;
4971;SDS011;2501;51.214;6.768;2023-08-06T03:57:32;4.65;;;3.20;;
4971;SDS011;2501;51.214;6.768;2023-08-06T04:00:00;5.70;;;3.40;;
4971;SDS011;2501;51.214;6.768;2023-08-06T04:02:29;4.90;;;3.47;;
4971;SDS011;2501;51.214;6.768;2023-08-06T04:04:57;5.50;;;3.90;;
4971;SDS011;2501;51.214;6.768;2023-08-06T04:07:26;4.90;;;3.50;;
4971;SDS011;2501;51.214;6.768;2023-08-06T04:09:56;3.60;;;3.35;;
4971;SDS011;2501;51.214;6.768;2023-08-06T04:12:29;4.40;;;3.50;;
4971;SDS011;2501;51.214;6.768;2023-08-06T04:14:58;6.13;;;3.50;;
4971;SDS011;2501;51.214;6.768;2023-08-06T04:17:28;6.53;;;3.30;;
4971;SDS011;2501;51.214;6.768;2023-08-06T04:19:56;7.00;;;3.00;;
4971;SDS011;2501;51.214;6.768;2023-08-06T04:22:25;3.53;;;3.22;;
4971;SDS011;2501;51.214;6.768;2023-08-06T04:24:54;10.57;;;3.60;;
4971;SDS011;2501;51.214;6.768;2023-08-06T04:27:22;7.40;;;3.40;;
4971;SDS011;2501;51.214;6.768;2023-08-06T04:29:53;3.90;;;3.05;;
4971;SDS011;2501;51.214;6.768;2023-08-06T04:32:22;6.88;;;3.60;;
4971;SDS011;2501;51.214;6.768;2023-08-06T04:34:51;4.18;;;3.33;;
4971;SDS011;2501;51.214;6.768;2023-08-06T04:37:19;6.22;;;3.38;;
4971;SDS011;2501;51.214;6.768;2023-08-06T04:39:48;4.07;;;3.40;;
4971;SDS011;2501;51.214;6.768;2023-08-06T04:42:16;4.60;;;3.55;;
4971;SDS011;2501;51.214;6.768;2023-08-06T04:44:44;5.05;;;3.72;;
4971;SDS011;2501;51.214;6.768;2023-08-06T04:47:16;4.10;;;3.80;;
4971;SDS011;2501;51.214;6.768;2023-08-06T04:49:44;3.92;;;3.50;;
4971;SDS011;2501;51.214;6.768;2023-08-06T04:52:12;6.60;;;3.70;;
4971;SDS011;2501;51.214;6.768;2023-08-06T04:54:41;8.10;;;4.03;;
4971;SDS011;2501;51.214;6.768;2023-08-06T04:57:09;5.00;;;3.50;;
4971;SDS011;2501;51.214;6.768;2023-08-06T04:59:38;5.97;;;3.20;;
4971;SDS011;2501;51.214;6.768;2023-08-06T05:02:07;4.00;;;3.65;;
4971;SDS011;2501;51.214;6.768;2023-08-06T05:04:37;4.05;;;3.65;;
4971;SDS011;2501;51.214;6.768;2023-08-06T05:07:06;5.10;;;3.60;;
4971;SDS011;2501;51.214;6.768;2023-08-06T05:09:34;5.38;;;3.70;;
4971;SDS011;2501;51.214;6.768;2023-08-06T05:12:04;4.75;;;3.85;;
4971;SDS011;2501;51.214;6.768;2023-08-06T05:14:33;4.93;;;4.00;;
4971;SDS011;2501;51.214;6.768;2023-08-06T05:17:01;5.15;;;4.05;;
4971;SDS011;2501;51.214;6.768;2023-08-06T05:19:30;6.38;;;3.53;;
4971;SDS011;2501;51.214;6.768;2023-08-06T05:22:01;3.85;;;3.40;;
4971;SDS011;2501;51.214;6.768;2023-08-06T05:24:29;5.93;;;3.30;;
4971;SDS011;2501;51.214;6.768;2023-08-06T05:26:58;5.10;;;3.30;;
4971;SDS011;2501;51.214;6.768;2023-08-06T05:29:26;5.40;;;3.53;;
4971;SDS011;2501;51.214;6.768;2023-08-06T05:31:55;5.85;;;3.60;;
4971;SDS011;2501;51.214;6.768;2023-08-06T05:34:23;3.65;;;3.25;;
4971;SDS011;2501;51.214;6.768;2023-08-06T05:36:51;4.88;;;3.72;;
4971;SDS011;2501;51.214;6.768;2023-08-06T05:39:23;4.50;;;3.30;;
4971;SDS011;2501;51.214;6.768;2023-08-06T05:41:51;3.70;;;3.40;;
4971;SDS011;2501;51.214;6.768;2023-08-06T05:44:20;3.40;;;2.90;;
4971;SDS011;2501;51.214;6.768;2023-08-06T05:46:48;5.53;;;2.97;;
4971;SDS011;2501;51.214;6.768;2023-08-06T05:49:18;3.30;;;3.00;;
4971;SDS011;2501;51.214;6.768;2023-08-06T05:51:47;3.28;;;2.97;;
4971;SDS011;2501;51.214;6.768;2023-08-06T05:54:15;4.82;;;3.33;;
4971;SDS011;2501;51.214;6.768;2023-08-06T05:56:46;4.75;;;2.80;;
4971;SDS011;2501;51.214;6.768;2023-08-06T05:59:14;4.30;;;3.10;;
4971;SDS011;2501;51.214;6.768;2023-08-06T06:01:43;3.28;;;3.00;;
4971;SDS011;2501;51.214;6.768;2023-08-06T06:04:11;3.67;;;2.90;;
4971;SDS011;2501;51.214;6.768;2023-08-06T06:06:40;5.38;;;2.60;;
4971;SDS011;2501;51.214;6.768;2023-08-06T06:09:10;7.38;;;2.50;;
4971;SDS011;2501;51.214;6.768;2023-08-06T06:11:38;3.00;;;2.70;;
4971;SDS011;2501;51.214;6.768;2023-08-06T06:14:09;7.03;;;2.58;;
4971;SDS011;2501;51.214;6.768;2023-08-06T06:16:37;6.28;;;2.75;;
4971;SDS011;2501;51.214;6.768;2023-08-06T06:19:06;3.63;;;2.80;;
4971;SDS011;2501;51.214;6.768;2023-08-06T06:21:34;4.60;;;2.60;;
4971;SDS011;2501;51.214;6.768;2023-08-06T06:24:03;3.20;;;2.50;;
4971;SDS011;2501;51.214;6.768;2023-08-06T06:26:33;2.47;;;2.03;;
4971;SDS011;2501;51.214;6.768;2023-08-06T06:29:01;2.50;;;2.30;;
4971;SDS011;2501;51.214;6.768;2023-08-06T06:31:32;2.10;;;1.90;;
4971;SDS011;2501;51.214;6.768;2023-08-06T06:34:01;3.42;;;2.10;;
4971;SDS011;2501;51.214;6.768;2023-08-06T06:36:29;6.72;;;2.00;;
4971;SDS011;2501;51.214;6.768;2023-08-06T06:38:58;1.90;;;1.80;;
4971;SDS011;2501;51.214;6.768;2023-08-06T06:41:26;3.40;;;2.38;;
4971;SDS011;2501;51.214;6.768;2023-08-06T06:43:56;2.90;;;2.20;;
4971;SDS011;2501;51.214;6.768;2023-08-06T06:46:25;2.17;;;1.97;;
4971;SDS011;2501;51.214;6.768;2023-08-06T06:48:56;3.53;;;2.30;;
4971;SDS011;2501;51.214;6.768;2023-08-06T06:51:25;1.95;;;1.83;;
4971;SDS011;2501;51.214;6.768;2023-08-06T06:53:53;1.90;;;1.80;;
4971;SDS011;2501;51.214;6.768;2023-08-06T06:56:22;3.30;;;2.20;;
4971;SDS011;2501;51.214;6.768;2023-08-06T06:58:50;3.80;;;2.00;;
4971;SDS011;2501;51.214;6.768;2023-08-06T07:01:19;2.20;;;2.03;;
4971;SDS011;2501;51.214;6.768;2023-08-06T07:03:47;2.22;;;2.10;;
4971;SDS011;2501;51.214;6.768;2023-08-06T07:06:18;4.60;;;2.20;;
4971;SDS011;2501;51.214;6.768;2023-08-06T07:08:47;4.20;;;2.70;;
4971;SDS011;2501;51.214;6.768;2023-08-06T07:11:15;3.60;;;2.20;;
4971;SDS011;2501;51.214;6.768;2023-08-06T07:13:44;6.25;;;2.67;;
4971;SDS011;2501;51.214;6.768;2023-08-06T07:16:12;3.63;;;2.85;;
4971;SDS011;2501;51.214;6.768;2023-08-06T07:18:40;4.05;;;3.75;;
4971;SDS011;2501;51.214;6.768;2023-08-06T07:21:09;3.80;;;3.40;;
4971;SDS011;2501;51.214;6.768;2023-08-06T07:23:40;5.75;;;3.70;;
4971;SDS011;2501;51.214;6.768;2023-08-06T07:26:08;5.00;;;4.07;;
4971;SDS011;2501;51.214;6.768;2023-08-06T07:28:37;4.97;;;4.57;;
4971;SDS011;2501;51.214;6.768;2023-08-06T07:31:05;4.50;;;4.10;;
4971;SDS011;2501;51.214;6.768;2023-08-06T07:33:34;5.25;;;4.75;;
4971;SDS011;2501;51.214;6.768;2023-08-06T07:36:07;5.10;;;4.60;;
4971;SDS011;2501;51.214;6.768;2023-08-06T07:38:36;4.78;;;4.10;;
4971;SDS011;2501;51.214;6.768;2023-08-06T07:41:07;9.88;;;5.95;;
4971;SDS011;2501;51.214;6.768;2023-08-06T07:43:36;4.80;;;4.40;;
4971;SDS011;2501;51.214;6.768;2023-08-06T07:46:05;5.32;;;4.20;;
4971;SDS011;2501;51.214;6.768;2023-08-06T07:48:33;4.20;;;3.80;;
4971;SDS011;2501;51.214;6.768;2023-08-06T07:51:02;4.22;;;3.83;;
4971;SDS011;2501;51.214;6.768;2023-08-06T07:53:30;4.57;;;4.17;;
4971;SDS011;2501;51.214;6.768;2023-08-06T07:55:59;5.70;;;4.10;;
4971;SDS011;2501;51.214;6.768;2023-08-06T07:58:30;3.58;;;2.65;;
4971;SDS011;2501;51.214;6.768;2023-08-06T08:00:59;3.60;;;3.00;;
4971;SDS011;2501;51.214;6.768;2023-08-06T08:03:28;6.40;;;3.15;;
4971;SDS011;2501;51.214;6.768;2023-08-06T08:05:56;4.80;;;3.55;;
4971;SDS011;2501;51.214;6.768;2023-08-06T08:08:25;4.70;;;3.35;;
4971;SDS011;2501;51.214;6.768;2023-08-06T08:10:53;3.90;;;3.40;;
4971;SDS011;2501;51.214;6.768;2023-08-06T08:13:24;5.25;;;3.45;;
4971;SDS011;2501;51.214;6.768;2023-08-06T08:15:58;3.73;;;3.43;;
4971;SDS011;2501;51.214;6.768;2023-08-06T08:18:30;4.97;;;3.92;;
4971;SDS011;2501;51.214;6.768;2023-08-06T08:20:59;4.22;;;3.90;;
4971;SDS011;2501;51.214;6.768;2023-08-06T08:23:28;4.20;;;3.80;;
4971;SDS011;2501;51.214;6.768;2023-08-06T08:25:56;3.10;;;2.90;;
4971;SDS011;2501;51.214;6.768;2023-08-06T08:28:27;2.83;;;2.63;;
4971;SDS011;2501;51.214;6.768;2023-08-06T08:30:55;3.00;;;2.80;;
4971;SDS011;2501;51.214;6.768;2023-08-06T08:33:26;2.43;;;2.30;;
4971;SDS011;2501;51.214;6.768;2023-08-06T08:35:55;2.67;;;2.58;;
4971;SDS011;2501;51.214;6.768;2023-08-06T08:38:26;5.47;;;2.85;;
4971;SDS011;2501;51.214;6.768;2023-08-06T08:40:55;2.35;;;2.25;;
4971;SDS011;2501;51.214;6.768;2023-08-06T08:43:23;2.90;;;2.60;;
4971;SDS011;2501;51.214;6.768;2023-08-06T08:45:53;2.50;;;2.10;;
4971;SDS011;2501;51.214;6.768;2023-08-06T08:48:24;2.03;;;1.92;;
4971;SDS011;2501;51.214;6.768;2023-08-06T08:50:55;3.45;;;2.10;;
4971;SDS011;2501;51.214;6.768;2023-08-06T08:53:25;1.92;;;1.83;;
4971;SDS011;2501;51.214;6.768;2023-08-06T08:55:55;2.45;;;2.00;;
4971;SDS011;2501;51.214;6.768;2023-08-06T08:58:24;3.67;;;1.80;;
4971;SDS011;2501;51.214;6.768;2023-08-06T09:00:53;1.80;;;1.70;;
4971;SDS011;2501;51.214;6.768;2023-08-06T09:03:22;2.87;;;2.13;;
4971;SDS011;2501;51.214;6.768;2023-08-06T09:05:54;3.30;;;2.05;;
4971;SDS011;2501;51.214;6.768;2023-08-06T09:08:24;3.20;;;1.95;;
4971;SDS011;2501;51.214;6.768;2023-08-06T09:10:55;2.00;;;1.90;;
4971;SDS011;2501;51.214;6.768;2023-08-06T09:13:24;2.40;;;2.00;;
4971;SDS011;2501;51.214;6.768;2023-08-06T09:15:53;3.50;;;2.03;;
4971;SDS011;2501;51.214;6.768;2023-08-06T09:18:24;2.10;;;2.00;;
4971;SDS011;2501;51.214;6.768;2023-08-06T09:20:57;2.35;;;2.10;;
4971;SDS011;2501;51.214;6.768;2023-08-06T09:23:29;2.10;;;1.90;;
4971;SDS011;2501;51.214;6.768;2023-08-06T09:25:58;3.93;;;2.30;;
4971;SDS011;2501;51.214;6.768;2023-08-06T09:28:36;2.85;;;2.65;;
4971;SDS011;2501;51.214;6.768;2023-08-06T09:31:08;4.97;;;3.30;;
4971;SDS011;2501;51.214;6.768;2023-08-06T09:33:37;7.20;;;4.17;;
4971;SDS011;2501;51.214;6.768;2023-08-06T09:36:12;10.00;;;4.13;;
4971;SDS011;2501;51.214;6.768;2023-08-06T09:38:40;7.25;;;4.40;;
4971;SDS011;2501;51.214;6.768;2023-08-06T09:41:09;4.00;;;3.60;;
4971;SDS011;2501;51.214;6.768;2023-08-06T09:43:41;8.15;;;5.70;;
4971;SDS011;2501;51.214;6.768;2023-08-06T09:46:13;8.38;;;4.53;;
4971;SDS011;2501;51.214;6.768;2023-08-06T09:48:44;8.05;;;5.30;;
4971;SDS011;2501;51.214;6.768;2023-08-06T09:51:15;8.70;;;5.90;;
4971;SDS011;2501;51.214;6.768;2023-08-06T09:53:45;7.25;;;5.60;;
4971;SDS011;2501;51.214;6.768;2023-08-06T09:56:16;9.13;;;5.87;;
4971;SDS011;2501;51.214;6.768;2023-08-06T09:58:51;6.88;;;4.82;;
4971;SDS011;2501;51.214;6.768;2023-08-06T10:01:24;7.07;;;4.85;;
4971;SDS011;2501;51.214;6.768;2023-08-06T10:03:53;3.67;;;3.10;;
4971;SDS011;2501;51.214;6.768;2023-08-06T10:06:55;6.30;;;4.00;;
4971;SDS011;2501;51.214;6.768;2023-08-06T10:09:38;4.90;;;2.95;;
4971;SDS011;2501;51.214;6.768;2023-08-06T10:12:16;5.75;;;3.10;;
4971;SDS011;2501;51.214;6.768;2023-08-06T10:14:47;3.22;;;2.72;;
4971;SDS011;2501;51.214;6.768;2023-08-06T10:17:17;3.50;;;3.20;;
4971;SDS011;2501;51.214;6.768;2023-08-06T10:19:46;2.80;;;2.60;;
4971;SDS011;2501;51.214;6.768;2023-08-06T10:22:18;3.35;;;2.40;;
4971;SDS011;2501;51.214;6.768;2023-08-06T10:24:48;2.30;;;2.20;;
4971;SDS011;2501;51.214;6.768;2023-08-06T10:27:21;3.90;;;2.20;;
4971;SDS011;2501;51.214;6.768;2023-08-06T10:29:51;2.30;;;2.20;;
4971;SDS011;2501;51.214;6.768;2023-08-06T10:32:19;2.00;;;1.90;;
4971;SDS011;2501;51.214;6.768;2023-08-06T10:34:54;1.70;;;1.60;;
4971;SDS011;2501;51.214;6.768;2023-08-06T10:37:34;2.20;;;1.30;;
4971;SDS011;2501;51.214;6.768;2023-08-06T10:40:03;0.80;;;0.80;;
4971;SDS011;2501;51.214;6.768;2023-08-06T10:42:34;1.77;;;1.10;;
4971;SDS011;2501;51.214;6.768;2023-08-06T10:45:13;1.00;;;0.90;;
4971;SDS011;2501;51.214;6.768;2023-08-06T10:47:43;0.90;;;0.80;;
4971;SDS011;2501;51.214;6.768;2023-08-06T10:50:12;1.10;;;0.80;;
4971;SDS011;2501;51.214;6.768;2023-08-06T10:52:45;1.20;;;1.20;;
4971;SDS011;2501;51.214;6.768;2023-08-06T10:55:15;1.70;;;1.50;;
4971;SDS011;2501;51.214;6.768;2023-08-06T10:57:50;1.70;;;1.60;;
4971;SDS011;2501;51.214;6.768;2023-08-06T11:00:20;1.90;;;1.70;;
4971;SDS011;2501;51.214;6.768;2023-08-06T11:02:48;2.13;;;1.92;;
4971;SDS011;2501;51.214;6.768;2023-08-06T11:05:17;7.80;;;2.03;;
4971;SDS011;2501;51.214;6.768;2023-08-06T11:07:48;2.00;;;1.90;;
4971;SDS011;2501;51.214;6.768;2023-08-06T11:10:17;1.90;;;1.80;;
4971;SDS011;2501;51.214;6.768;2023-08-06T11:12:46;1.80;;;1.70;;
4971;SDS011;2501;51.214;6.768;2023-08-06T11:15:14;1.90;;;1.80;;
4971;SDS011;2501;51.214;6.768;2023-08-06T11:17:43;2.20;;;1.90;;
4971;SDS011;2501;51.214;6.768;2023-08-06T11:20:11;1.95;;;1.60;;
4971;SDS011;2501;51.214;6.768;2023-08-06T11:22:40;1.60;;;1.50;;
4971;SDS011;2501;51.214;6.768;2023-08-06T11:25:11;2.13;;;1.47;;
4971;SDS011;2501;51.214;6.768;2023-08-06T11:27:39;2.65;;;2.08;;
4971;SDS011;2501;51.214;6.768;2023-08-06T11:30:09;2.38;;;2.20;;
4971;SDS011;2501;51.214;6.768;2023-08-06T11:32:46;2.90;;;2.70;;
4971;SDS011;2501;51.214;6.768;2023-08-06T11:35:15;3.22;;;2.70;;
4971;SDS011;2501;51.214;6.768;2023-08-06T11:37:44;3.72;;;3.20;;
4971;SDS011;2501;51.214;6.768;2023-08-06T11:40:17;4.40;;;3.43;;
4971;SDS011;2501;51.214;6.768;2023-08-06T11:42:46;4.43;;;3.50;;
4971;SDS011;2501;51.214;6.768;2023-08-06T11:45:15;4.10;;;3.60;;
4971;SDS011;2501;51.214;6.768;2023-08-06T11:47:49;5.22;;;3.38;;
4971;SDS011;2501;51.214;6.768;2023-08-06T11:50:24;5.00;;;3.53;;
4971;SDS011;2501;51.214;6.768;2023-08-06T11:52:54;6.63;;;4.00;;
4971;SDS011;2501;51.214;6.768;2023-08-06T11:55:28;4.30;;;3.88;;
4971;SDS011;2501;51.214;6.768;2023-08-06T11:57:57;4.80;;;3.57;;
4971;SDS011;2501;51.214;6.768;2023-08-06T12:00:26;4.03;;;3.60;;
4971;SDS011;2501;51.214;6.768;2023-08-06T12:02:54;7.47;;;3.50;;
4971;SDS011;2501;51.214;6.768;2023-08-06T12:05:28;4.70;;;4.10;;
4971;SDS011;2501;51.214;6.768;2023-08-06T12:07:58;6.60;;;4.03;;
4971;SDS011;2501;51.214;6.768;2023-08-06T12:10:31;7.10;;;3.60;;
4971;SDS011;2501;51.214;6.768;2023-08-06T12:13:00;5.20;;;3.80;;
4971;SDS011;2501;51.214;6.768;2023-08-06T12:15:29;7.00;;;4.10;;
4971;SDS011;2501;51.214;6.768;2023-08-06T12:17:57;5.78;;;4.40;;
4971;SDS011;2501;51.214;6.768;2023-08-06T12:20:26;7.55;;;4.03;;
4971;SDS011;2501;51.214;6.768;2023-08-06T12:22:54;4.30;;;3.90;;
4971;SDS011;2501;51.214;6.768;2023-08-06T12:25:23;5.50;;;3.80;;
4971;SDS011;2501;51.214;6.768;2023-08-06T12:27:52;7.73;;;4.17;;
4971;SDS011;2501;51.214;6.768;2023-08-06T12:30:20;5.00;;;3.42;;
4971;SDS011;2501;51.214;6.768;2023-08-06T12:32:48;3.60;;;3.30;;
4971;SDS011;2501;51.214;6.768;2023-08-06T12:35:17;7.53;;;4.10;;
4971;SDS011;2501;51.214;6.768;2023-08-06T12:37:46;6.87;;;3.80;;
4971;SDS011;2501;51.214;6.768;2023-08-06T12:40:16;4.10;;;3.70;;
4971;SDS011;2501;51.214;6.768;2023-08-06T12:42:53;3.78;;;3.10;;
4971;SDS011;2501;51.214;6.768;2023-08-06T12:45:24;6.63;;;3.77;;
4971;SDS011;2501;51.214;6.768;2023-08-06T12:47:52;4.80;;;3.00;;
4971;SDS011;2501;51.214;6.768;2023-08-06T12:50:21;6.78;;;3.40;;
4971;SDS011;2501;51.214;6.768;2023-08-06T12:52:49;7.00;;;3.55;;
4971;SDS011;2501;51.214;6.768;2023-08-06T12:55:18;4.32;;;3.33;;
4971;SDS011;2501;51.214;6.768;2023-08-06T12:57:47;4.45;;;3.47;;
4971;SDS011;2501;51.214;6.768;2023-08-06T13:00:18;9.40;;;3.33;;
4971;SDS011;2501;51.214;6.768;2023-08-06T13:02:46;6.60;;;3.20;;
4971;SDS011;2501;51.214;6.768;2023-08-06T13:05:15;2.63;;;2.33;;
4971;SDS011;2501;51.214;6.768;2023-08-06T13:07:43;3.15;;;2.70;;
4971;SDS011;2501;51.214;6.768;2023-08-06T13:10:11;6.18;;;2.50;;
4971;SDS011;2501;51.214;6.768;2023-08-06T13:12:40;2.40;;;1.80;;
4971;SDS011;2501;51.214;6.768;2023-08-06T13:15:08;3.25;;;1.83;;
4971;SDS011;2501;51.214;6.768;2023-08-06T13:17:42;3.85;;;2.30;;
4971;SDS011;2501;51.214;6.768;2023-08-06T13:20:10;3.05;;;1.70;;
4971;SDS011;2501;51.214;6.768;2023-08-06T13:22:39;7.00;;;2.40;;
4971;SDS011;2501;51.214;6.768;2023-08-06T13:25:08;3.10;;;1.73;;
4971;SDS011;2501;51.214;6.768;2023-08-06T13:27:36;3.28;;;1.88;;
4971;SDS011;2501;51.214;6.768;2023-08-06T13:30:06;2.92;;;2.20;;
4971;SDS011;2501;51.214;6.768;2023-08-06T13:32:35;2.90;;;2.10;;
4971;SDS011;2501;51.214;6.768;2023-08-06T13:35:07;3.22;;;2.10;;
4971;SDS011;2501;51.214;6.768;2023-08-06T13:37:35;2.30;;;2.10;;
4971;SDS011;2501;51.214;6.768;2023-08-06T13:40:05;4.15;;;2.40;;
4971;SDS011;2501;51.214;6.768;2023-08-06T13:42:36;3.58;;;2.30;;
4971;SDS011;2501;51.214;6.768;2023-08-06T13:45:05;5.22;;;2.60;;
4971;SDS011;2501;51.214;6.768;2023-08-06T13:47:35;7.90;;;2.83;;
4971;SDS011;2501;51.214;6.768;2023-08-06T13:50:03;5.30;;;3.00;;
4971;SDS011;2501;51.214;6.768;2023-08-06T13:52:35;4.35;;;3.47;;
4971;SDS011;2501;51.214;6.768;2023-08-06T13:55:04;3.25;;;2.60;;
4971;SDS011;2501;51.214;6.768;2023-08-06T13:57:33;3.67;;;2.40;;
4971;SDS011;2501;51.214;6.768;2023-08-06T14:00:03;5.38;;;2.85;;
4971;SDS011;2501;51.214;6.768;2023-08-06T14:02:32;6.45;;;3.10;;
4971;SDS011;2501;51.214;6.768;2023-08-06T14:05:00;3.50;;;2.85;;
4971;SDS011;2501;51.214;6.768;2023-08-06T14:07:31;4.05;;;2.80;;
4971;SDS011;2501;51.214;6.768;2023-08-06T14:10:00;5.05;;;2.72;;
4971;SDS011;2501;51.214;6.768;2023-08-06T14:12:28;5.00;;;2.70;;
4971;SDS011;2501;51.214;6.768;2023-08-06T14:14:57;5.15;;;2.78;;
4971;SDS011;2501;51.214;6.768;2023-08-06T14:17:25;3.08;;;2.55;;
4971;SDS011;2501;51.214;6.768;2023-08-06T14:19:54;4.80;;;2.90;;
4971;SDS011;2501;51.214;6.768;2023-08-06T14:22:22;2.95;;;2.50;;
4971;SDS011;2501;51.214;6.768;2023-08-06T14:24:53;2.80;;;2.40;;
4971;SDS011;2501;51.214;6.768;2023-08-06T14:27:22;2.67;;;2.30;;
4971;SDS011;2501;51.214;6.768;2023-08-06T14:29:50;5.63;;;2.73;;
4971;SDS011;2501;51.214;6.768;2023-08-06T14:32:19;4.27;;;2.47;;
4971;SDS011;2501;51.214;6.768;2023-08-06T14:34:47;5.17;;;2.40;;
4971;SDS011;2501;51.214;6.768;2023-08-06T14:37:16;2.80;;;2.10;;
4971;SDS011;2501;51.214;6.768;2023-08-06T14:39:44;4.37;;;2.10;;
4971;SDS011;2501;51.214;6.768;2023-08-06T14:42:15;3.00;;;2.50;;
4971;SDS011;2501;51.214;6.768;2023-08-06T14:44:44;3.08;;;2.35;;
4971;SDS011;2501;51.214;6.768;2023-08-06T14:47:12;3.70;;;2.42;;
4971;SDS011;2501;51.214;6.768;2023-08-06T14:49:41;2.00;;;1.80;;
4971;SDS011;2501;51.214;6.768;2023-08-06T14:52:10;2.60;;;2.40;;
4971;SDS011;2501;51.214;6.768;2023-08-06T14:54:38;4.50;;;2.20;;
4971;SDS011;2501;51.214;6.768;2023-08-06T14:57:07;3.28;;;2.03;;
4971;SDS011;2501;51.214;6.768;2023-08-06T14:59:38;4.00;;;2.30;;
4971;SDS011;2501;51.214;6.768;2023-08-06T15:02:07;2.80;;;2.60;;
4971;SDS011;2501;51.214;6.768;2023-08-06T15:04:35;4.50;;;2.10;;
4971;SDS011;2501;51.214;6.768;2023-08-06T15:07:04;2.73;;;2.50;;
4971;SDS011;2501;51.214;6.768;2023-08-06T15:09:34;4.68;;;2.42;;
4971;SDS011;2501;51.214;6.768;2023-08-06T15:12:03;3.45;;;2.40;;
4971;SDS011;2501;51.214;6.768;2023-08-06T15:14:33;5.68;;;3.10;;
4971;SDS011;2501;51.214;6.768;2023-08-06T15:17:04;4.67;;;2.60;;
4971;SDS011;2501;51.214;6.768;2023-08-06T15:19:32;4.03;;;2.33;;
4971;SDS011;2501;51.214;6.768;2023-08-06T15:22:01;2.60;;;2.10;;
4971;SDS011;2501;51.214;6.768;2023-08-06T15:24:29;2.60;;;2.40;;
4971;SDS011;2501;51.214;6.768;2023-08-06T15:26:58;2.60;;;2.10;;
4971;SDS011;2501;51.214;6.768;2023-08-06T15:29:27;5.57;;;2.63;;